sensor_id;sensor_type;location;lat;lon;timestamp;pressure;altitude;pressure_sealevel;temperature;humidity
51530;BME280;37613;51.788;21.582;2023-11-19T00:03:42;100704.06;;;-1.04;100.00
51530;BME280;37613;51.788;21.582;2023-11-19T00:07:44;100691.60;;;-1.05;100.00
51530;BME280;37613;51.788;21.582;2023-11-19T00:11:46;100688.27;;;-1.04;100.00
51530;BME280;37613;51.788;21.582;2023-11-19T00:15:49;100690.88;;;-1.02;100.00
51530;BME280;37613;51.788;21.582;2023-11-19T00:19:51;100692.84;;;-1.00;100.00
51530;BME280;37613;51.788;21.582;2023-11-19T00:23:53;100691.81;;;-0.95;100.00
51530;BME280;37613;51.788;21.582;2023-11-19T00:27:55;100692.16;;;-0.91;100.00
51530;BME280;37613;51.788;21.582;2023-11-19T00:31:58;100695.88;;;-0.88;100.00
51530;BME280;37613;51.788;21.582;2023-11-19T00:36:00;100698.17;;;-0.86;100.00
51530;BME280;37613;51.788;21.582;2023-11-19T00:40:02;100698.53;;;-0.85;100.00
51530;BME280;37613;51.788;21.582;2023-11-19T00:44:07;100698.80;;;-0.84;100.00
51530;BME280;37613;51.788;21.582;2023-11-19T00:48:09;100704.42;;;-0.83;100.00
51530;BME280;37613;51.788;21.582;2023-11-19T00:52:11;100699.09;;;-0.86;100.00
51530;BME280;37613;51.788;21.582;2023-11-19T00:56:13;100688.34;;;-0.86;100.00
51530;BME280;37613;51.788;21.582;2023-11-19T01:00:15;100676.05;;;-0.85;100.00
51530;BME280;37613;51.788;21.582;2023-11-19T01:04:20;100666.45;;;-0.83;100.00
51530;BME280;37613;51.788;21.582;2023-11-19T01:08:22;100662.86;;;-0.79;100.00
51530;BME280;37613;51.788;21.582;2023-11-19T01:12:26;100660.76;;;-0.75;100.00
51530;BME280;37613;51.788;21.582;2023-11-19T01:16:28;100657.02;;;-0.73;100.00
51530;BME280;37613;51.788;21.582;2023-11-19T01:20:30;100646.53;;;-0.74;100.00
51530;BME280;37613;51.788;21.582;2023-11-19T01:24:32;100636.50;;;-0.72;100.00
51530;BME280;37613;51.788;21.582;2023-11-19T01:28:34;100635.86;;;-0.71;100.00
51530;BME280;37613;51.788;21.582;2023-11-19T01:32:36;100630.02;;;-0.70;100.00
51530;BME280;37613;51.788;21.582;2023-11-19T01:36:38;100618.07;;;-0.67;100.00
51530;BME280;37613;51.788;21.582;2023-11-19T01:40:40;100600.61;;;-0.67;100.00
51530;BME280;37613;51.788;21.582;2023-11-19T01:44:58;100593.29;;;-0.68;100.00
51530;BME280;37613;51.788;21.582;2023-11-19T01:49:01;100595.53;;;-0.66;100.00
51530;BME280;37613;51.788;21.582;2023-11-19T01:53:04;100603.39;;;-0.67;100.00
51530;BME280;37613;51.788;21.582;2023-11-19T01:57:06;100603.52;;;-0.68;100.00
51530;BME280;37613;51.788;21.582;2023-11-19T02:01:09;100598.60;;;-0.67;100.00
51530;BME280;37613;51.788;21.582;2023-11-19T02:05:13;100592.65;;;-0.68;100.00
51530;BME280;37613;51.788;21.582;2023-11-19T02:09:16;100581.44;;;-0.70;100.00
51530;BME280;37613;51.788;21.582;2023-11-19T02:21:37;100560.23;;;-0.59;100.00
51530;BME280;37613;51.788;21.582;2023-11-19T02:25:40;100558.73;;;-0.58;100.00
51530;BME280;37613;51.788;21.582;2023-11-19T02:29:42;100554.29;;;-0.60;100.00
51530;BME280;37613;51.788;21.582;2023-11-19T02:33:44;100546.75;;;-0.65;100.00
51530;BME280;37613;51.788;21.582;2023-11-19T02:50:35;100530.56;;;-0.32;100.00
51530;BME280;37613;51.788;21.582;2023-11-19T02:54:37;100534.44;;;-0.24;100.00
51530;BME280;37613;51.788;21.582;2023-11-19T02:58:39;100531.70;;;-0.33;100.00
51530;BME280;37613;51.788;21.582;2023-11-19T03:02:42;100529.39;;;-0.39;100.00
51530;BME280;37613;51.788;21.582;2023-11-19T03:06:48;100525.83;;;-0.43;100.00
51530;BME280;37613;51.788;21.582;2023-11-19T03:10:50;100525.23;;;-0.51;100.00
51530;BME280;37613;51.788;21.582;2023-11-19T03:14:52;100514.38;;;-0.58;100.00
51530;BME280;37613;51.788;21.582;2023-11-19T03:18:54;100508.56;;;-0.60;100.00
51530;BME280;37613;51.788;21.582;2023-11-19T03:22:56;100503.09;;;-0.61;100.00
51530;BME280;37613;51.788;21.582;2023-11-19T03:26:59;100499.36;;;-0.64;100.00
51530;BME280;37613;51.788;21.582;2023-11-19T03:31:04;100488.71;;;-0.67;100.00
51530;BME280;37613;51.788;21.582;2023-11-19T03:35:10;100483.86;;;-0.69;100.00
51530;BME280;37613;51.788;21.582;2023-11-19T03:39:13;100477.30;;;-0.73;100.00
51530;BME280;37613;51.788;21.582;2023-11-19T03:43:15;100471.06;;;-0.74;100.00
51530;BME280;37613;51.788;21.582;2023-11-19T03:47:17;100473.17;;;-0.74;100.00
51530;BME280;37613;51.788;21.582;2023-11-19T03:51:19;100465.83;;;-0.73;100.00
51530;BME280;37613;51.788;21.582;2023-11-19T03:55:21;100454.83;;;-0.72;100.00
51530;BME280;37613;51.788;21.582;2023-11-19T03:59:23;100442.61;;;-0.75;100.00
51530;BME280;37613;51.788;21.582;2023-11-19T04:03:25;100440.95;;;-0.75;100.00
51530;BME280;37613;51.788;21.582;2023-11-19T04:07:27;100445.11;;;-0.75;100.00
51530;BME280;37613;51.788;21.582;2023-11-19T04:11:29;100437.23;;;-0.77;100.00
51530;BME280;37613;51.788;21.582;2023-11-19T04:15:31;100428.83;;;-0.77;100.00
51530;BME280;37613;51.788;21.582;2023-11-19T04:19:33;100425.52;;;-0.75;100.00
51530;BME280;37613;51.788;21.582;2023-11-19T04:23:35;100425.77;;;-0.75;100.00
51530;BME280;37613;51.788;21.582;2023-11-19T04:27:37;100425.52;;;-0.75;100.00
51530;BME280;37613;51.788;21.582;2023-11-19T04:31:40;100415.21;;;-0.76;100.00
51530;BME280;37613;51.788;21.582;2023-11-19T04:35:42;100409.59;;;-0.75;100.00
51530;BME280;37613;51.788;21.582;2023-11-19T04:39:45;100399.08;;;-0.74;100.00
51530;BME280;37613;51.788;21.582;2023-11-19T04:43:47;100389.09;;;-0.72;100.00
51530;BME280;37613;51.788;21.582;2023-11-19T04:47:50;100384.44;;;-0.70;100.00
51530;BME280;37613;51.788;21.582;2023-11-19T04:51:52;100385.88;;;-0.69;100.00
51530;BME280;37613;51.788;21.582;2023-11-19T04:55:54;100376.63;;;-0.68;100.00
51530;BME280;37613;51.788;21.582;2023-11-19T04:59:56;100369.80;;;-0.66;100.00
51530;BME280;37613;51.788;21.582;2023-11-19T05:03:58;100360.09;;;-0.67;100.00
51530;BME280;37613;51.788;21.582;2023-11-19T05:08:03;100356.58;;;-0.65;100.00
51530;BME280;37613;51.788;21.582;2023-11-19T05:12:05;100349.13;;;-0.63;100.00
51530;BME280;37613;51.788;21.582;2023-11-19T05:16:10;100336.82;;;-0.63;100.00
51530;BME280;37613;51.788;21.582;2023-11-19T05:20:12;100326.27;;;-0.64;100.00
51530;BME280;37613;51.788;21.582;2023-11-19T05:24:18;100326.42;;;-0.64;100.00
51530;BME280;37613;51.788;21.582;2023-11-19T05:28:20;100320.40;;;-0.62;100.00
51530;BME280;37613;51.788;21.582;2023-11-19T05:32:23;100315.52;;;-0.60;100.00
51530;BME280;37613;51.788;21.582;2023-11-19T05:36:25;100314.65;;;-0.61;100.00
51530;BME280;37613;51.788;21.582;2023-11-19T05:40:27;100314.20;;;-0.60;100.00
51530;BME280;37613;51.788;21.582;2023-11-19T05:44:29;100322.19;;;-0.60;100.00
51530;BME280;37613;51.788;21.582;2023-11-19T05:48:32;100324.30;;;-0.60;100.00
51530;BME280;37613;51.788;21.582;2023-11-19T05:52:34;100327.95;;;-0.60;100.00
51530;BME280;37613;51.788;21.582;2023-11-19T05:56:36;100331.51;;;-0.61;100.00
51530;BME280;37613;51.788;21.582;2023-11-19T06:00:38;100324.77;;;-0.60;100.00
51530;BME280;37613;51.788;21.582;2023-11-19T06:04:42;100322.76;;;-0.58;100.00
51530;BME280;37613;51.788;21.582;2023-11-19T06:08:45;100322.60;;;-0.56;100.00
51530;BME280;37613;51.788;21.582;2023-11-19T06:12:48;100319.18;;;-0.53;100.00
51530;BME280;37613;51.788;21.582;2023-11-19T06:16:57;100320.88;;;-0.51;100.00
51530;BME280;37613;51.788;21.582;2023-11-19T06:20:59;100316.70;;;-0.49;100.00
51530;BME280;37613;51.788;21.582;2023-11-19T06:25:02;100313.11;;;-0.48;100.00
51530;BME280;37613;51.788;21.582;2023-11-19T06:29:08;100307.09;;;-0.47;100.00
51530;BME280;37613;51.788;21.582;2023-11-19T06:33:13;100301.99;;;-0.45;100.00
51530;BME280;37613;51.788;21.582;2023-11-19T06:37:15;100305.95;;;-0.41;100.00
51530;BME280;37613;51.788;21.582;2023-11-19T06:41:17;100307.59;;;-0.38;100.00
51530;BME280;37613;51.788;21.582;2023-11-19T06:45:19;100303.43;;;-0.35;100.00
51530;BME280;37613;51.788;21.582;2023-11-19T06:49:21;100300.64;;;-0.34;100.00
51530;BME280;37613;51.788;21.582;2023-11-19T06:53:23;100297.16;;;-0.32;100.00
51530;BME280;37613;51.788;21.582;2023-11-19T06:57:25;100288.05;;;-0.29;100.00
51530;BME280;37613;51.788;21.582;2023-11-19T07:01:27;100280.91;;;-0.26;100.00
51530;BME280;37613;51.788;21.582;2023-11-19T07:05:29;100276.48;;;-0.25;100.00
51530;BME280;37613;51.788;21.582;2023-11-19T07:09:31;100269.83;;;-0.24;100.00
51530;BME280;37613;51.788;21.582;2023-11-19T07:13:34;100272.33;;;-0.20;100.00
51530;BME280;37613;51.788;21.582;2023-11-19T07:17:36;100267.02;;;-0.17;100.00
51530;BME280;37613;51.788;21.582;2023-11-19T07:21:42;100262.98;;;-0.15;100.00
51530;BME280;37613;51.788;21.582;2023-11-19T07:25:45;100255.56;;;-0.13;100.00
51530;BME280;37613;51.788;21.582;2023-11-19T07:29:48;100248.70;;;-0.10;100.00
51530;BME280;37613;51.788;21.582;2023-11-19T07:33:50;100242.33;;;-0.08;100.00
51530;BME280;37613;51.788;21.582;2023-11-19T07:37:52;100239.51;;;-0.08;100.00
51530;BME280;37613;51.788;21.582;2023-11-19T07:41:54;100234.36;;;-0.09;100.00
51530;BME280;37613;51.788;21.582;2023-11-19T07:45:57;100231.39;;;-0.08;100.00
51530;BME280;37613;51.788;21.582;2023-11-19T07:50:01;100232.00;;;-0.08;100.00
51530;BME280;37613;51.788;21.582;2023-11-19T07:54:03;100234.35;;;-0.09;100.00
51530;BME280;37613;51.788;21.582;2023-11-19T07:58:06;100226.94;;;-0.08;100.00
51530;BME280;37613;51.788;21.582;2023-11-19T08:02:08;100218.34;;;-0.06;100.00
51530;BME280;37613;51.788;21.582;2023-11-19T08:06:12;100219.31;;;-0.05;100.00
51530;BME280;37613;51.788;21.582;2023-11-19T08:10:14;100212.02;;;-0.04;100.00
51530;BME280;37613;51.788;21.582;2023-11-19T08:14:16;100209.98;;;-0.01;100.00
51530;BME280;37613;51.788;21.582;2023-11-19T08:18:18;100205.67;;;0.02;100.00
51530;BME280;37613;51.788;21.582;2023-11-19T08:22:20;100198.38;;;0.02;100.00
51530;BME280;37613;51.788;21.582;2023-11-19T08:26:23;100194.30;;;-0.00;100.00
51530;BME280;37613;51.788;21.582;2023-11-19T08:30:25;100187.60;;;-0.05;100.00
51530;BME280;37613;51.788;21.582;2023-11-19T08:34:27;100184.13;;;-0.06;100.00
51530;BME280;37613;51.788;21.582;2023-11-19T08:38:29;100178.10;;;-0.05;100.00
51530;BME280;37613;51.788;21.582;2023-11-19T08:42:31;100171.11;;;-0.03;100.00
51530;BME280;37613;51.788;21.582;2023-11-19T08:46:33;100174.38;;;-0.03;100.00
51530;BME280;37613;51.788;21.582;2023-11-19T08:50:35;100167.49;;;-0.02;100.00
51530;BME280;37613;51.788;21.582;2023-11-19T08:54:37;100158.73;;;-0.00;100.00
51530;BME280;37613;51.788;21.582;2023-11-19T08:58:39;100152.65;;;-0.00;100.00
51530;BME280;37613;51.788;21.582;2023-11-19T09:02:41;100143.17;;;0.02;100.00
51530;BME280;37613;51.788;21.582;2023-11-19T09:06:45;100138.48;;;0.03;100.00
51530;BME280;37613;51.788;21.582;2023-11-19T09:10:47;100134.72;;;0.02;100.00
51530;BME280;37613;51.788;21.582;2023-11-19T09:14:49;100125.07;;;0.04;100.00
51530;BME280;37613;51.788;21.582;2023-11-19T09:18:51;100117.56;;;0.08;100.00
51530;BME280;37613;51.788;21.582;2023-11-19T09:22:53;100105.73;;;0.15;100.00
51530;BME280;37613;51.788;21.582;2023-11-19T09:26:55;100100.58;;;0.21;100.00
51530;BME280;37613;51.788;21.582;2023-11-19T09:30:58;100100.23;;;0.24;100.00
51530;BME280;37613;51.788;21.582;2023-11-19T09:35:00;100094.64;;;0.26;100.00
51530;BME280;37613;51.788;21.582;2023-11-19T09:39:04;100086.16;;;0.32;100.00
51530;BME280;37613;51.788;21.582;2023-11-19T09:43:07;100083.56;;;0.38;100.00
51530;BME280;37613;51.788;21.582;2023-11-19T09:47:11;100083.44;;;0.42;100.00
51530;BME280;37613;51.788;21.582;2023-11-19T09:51:14;100075.13;;;0.49;100.00
51530;BME280;37613;51.788;21.582;2023-11-19T09:55:16;100065.58;;;0.49;100.00
51530;BME280;37613;51.788;21.582;2023-11-19T09:59:18;100055.90;;;0.44;100.00
51530;BME280;37613;51.788;21.582;2023-11-19T10:03:22;100042.81;;;0.40;100.00
51530;BME280;37613;51.788;21.582;2023-11-19T10:07:25;100036.92;;;0.38;100.00
51530;BME280;37613;51.788;21.582;2023-11-19T10:11:27;100032.70;;;0.39;100.00
51530;BME280;37613;51.788;21.582;2023-11-19T10:15:32;100017.14;;;0.37;100.00
51530;BME280;37613;51.788;21.582;2023-11-19T10:19:40;100009.40;;;0.34;100.00
51530;BME280;37613;51.788;21.582;2023-11-19T10:23:54;100001.27;;;0.32;100.00
51530;BME280;37613;51.788;21.582;2023-11-19T10:27:58;99995.56;;;0.38;100.00
51530;BME280;37613;51.788;21.582;2023-11-19T10:32:01;99991.59;;;0.42;100.00
51530;BME280;37613;51.788;21.582;2023-11-19T10:36:04;99976.80;;;0.42;100.00
51530;BME280;37613;51.788;21.582;2023-11-19T10:40:07;99975.89;;;0.40;100.00
51530;BME280;37613;51.788;21.582;2023-11-19T10:44:11;99971.71;;;0.37;100.00
51530;BME280;37613;51.788;21.582;2023-11-19T10:48:14;99971.75;;;0.34;100.00
51530;BME280;37613;51.788;21.582;2023-11-19T10:52:18;99967.66;;;0.32;100.00
51530;BME280;37613;51.788;21.582;2023-11-19T10:56:25;99962.02;;;0.33;100.00
51530;BME280;37613;51.788;21.582;2023-11-19T11:00:38;99951.89;;;0.35;100.00
51530;BME280;37613;51.788;21.582;2023-11-19T11:04:44;99946.39;;;0.36;100.00
51530;BME280;37613;51.788;21.582;2023-11-19T11:08:47;99936.23;;;0.34;100.00
51530;BME280;37613;51.788;21.582;2023-11-19T11:12:50;99933.02;;;0.36;100.00
51530;BME280;37613;51.788;21.582;2023-11-19T11:17:01;99923.61;;;0.36;100.00
51530;BME280;37613;51.788;21.582;2023-11-19T11:21:09;99914.30;;;0.34;100.00
51530;BME280;37613;51.788;21.582;2023-11-19T11:25:23;99900.34;;;0.35;100.00
51530;BME280;37613;51.788;21.582;2023-11-19T11:30:07;99892.13;;;0.38;100.00
51530;BME280;37613;51.788;21.582;2023-11-19T11:38:37;99874.11;;;0.54;100.00
51530;BME280;37613;51.788;21.582;2023-11-19T11:42:42;99876.08;;;0.53;100.00
51530;BME280;37613;51.788;21.582;2023-11-19T11:46:54;99873.18;;;0.54;100.00
51530;BME280;37613;51.788;21.582;2023-11-19T11:50:57;99861.55;;;0.58;100.00
51530;BME280;37613;51.788;21.582;2023-11-19T11:55:07;99854.38;;;0.60;100.00
51530;BME280;37613;51.788;21.582;2023-11-19T11:59:20;99846.36;;;0.64;100.00
51530;BME280;37613;51.788;21.582;2023-11-19T12:03:22;99836.28;;;0.68;100.00
51530;BME280;37613;51.788;21.582;2023-11-19T12:07:25;99831.55;;;0.68;100.00
51530;BME280;37613;51.788;21.582;2023-11-19T12:11:28;99818.84;;;0.65;100.00
51530;BME280;37613;51.788;21.582;2023-11-19T12:15:32;99805.78;;;0.55;100.00
51530;BME280;37613;51.788;21.582;2023-11-19T12:19:35;99798.85;;;0.48;100.00
51530;BME280;37613;51.788;21.582;2023-11-19T12:23:45;99795.52;;;0.42;100.00
51530;BME280;37613;51.788;21.582;2023-11-19T12:27:50;99792.06;;;0.34;100.00
51530;BME280;37613;51.788;21.582;2023-11-19T12:31:55;99785.95;;;0.32;100.00
51530;BME280;37613;51.788;21.582;2023-11-19T12:35:58;99783.17;;;0.33;100.00
51530;BME280;37613;51.788;21.582;2023-11-19T12:40:31;99777.29;;;0.43;100.00
51530;BME280;37613;51.788;21.582;2023-11-19T12:44:33;99772.26;;;0.44;100.00
51530;BME280;37613;51.788;21.582;2023-11-19T12:48:36;99764.44;;;0.42;100.00
51530;BME280;37613;51.788;21.582;2023-11-19T12:52:39;99761.00;;;0.37;100.00
51530;BME280;37613;51.788;21.582;2023-11-19T12:56:54;99753.05;;;0.32;100.00
51530;BME280;37613;51.788;21.582;2023-11-19T13:01:05;99747.35;;;0.29;100.00
51530;BME280;37613;51.788;21.582;2023-11-19T13:05:30;99744.23;;;0.29;100.00
51530;BME280;37613;51.788;21.582;2023-11-19T13:09:34;99733.45;;;0.27;100.00
51530;BME280;37613;51.788;21.582;2023-11-19T13:13:56;99727.04;;;0.26;100.00
51530;BME280;37613;51.788;21.582;2023-11-19T13:17:59;99722.70;;;0.24;100.00
51530;BME280;37613;51.788;21.582;2023-11-19T13:22:02;99717.45;;;0.21;100.00
51530;BME280;37613;51.788;21.582;2023-11-19T13:26:04;99716.68;;;0.18;100.00
51530;BME280;37613;51.788;21.582;2023-11-19T13:30:07;99714.60;;;0.19;100.00
51530;BME280;37613;51.788;21.582;2023-11-19T13:34:10;99706.48;;;0.20;100.00
51530;BME280;37613;51.788;21.582;2023-11-19T13:38:12;99703.48;;;0.18;100.00
51530;BME280;37613;51.788;21.582;2023-11-19T13:42:14;99702.67;;;0.23;100.00
51530;BME280;37613;51.788;21.582;2023-11-19T13:46:16;99703.47;;;0.52;100.00
51530;BME280;37613;51.788;21.582;2023-11-19T13:50:19;99694.20;;;0.50;100.00
51530;BME280;37613;51.788;21.582;2023-11-19T13:54:22;99685.48;;;0.41;100.00
51530;BME280;37613;51.788;21.582;2023-11-19T13:58:25;99676.30;;;0.36;100.00
51530;BME280;37613;51.788;21.582;2023-11-19T14:02:27;99672.21;;;0.33;100.00
51530;BME280;37613;51.788;21.582;2023-11-19T14:06:29;99668.58;;;0.31;100.00
51530;BME280;37613;51.788;21.582;2023-11-19T14:10:32;99662.73;;;0.28;100.00
51530;BME280;37613;51.788;21.582;2023-11-19T14:14:35;99657.88;;;0.27;100.00
51530;BME280;37613;51.788;21.582;2023-11-19T14:18:38;99656.92;;;0.21;100.00
51530;BME280;37613;51.788;21.582;2023-11-19T14:22:44;99653.75;;;0.17;100.00
51530;BME280;37613;51.788;21.582;2023-11-19T14:26:47;99654.36;;;0.15;100.00
51530;BME280;37613;51.788;21.582;2023-11-19T14:30:50;99657.65;;;0.13;100.00
51530;BME280;37613;51.788;21.582;2023-11-19T14:34:58;99648.16;;;0.10;100.00
51530;BME280;37613;51.788;21.582;2023-11-19T14:39:02;99631.96;;;0.07;100.00
51530;BME280;37613;51.788;21.582;2023-11-19T14:43:08;99620.46;;;0.04;100.00
51530;BME280;37613;51.788;21.582;2023-11-19T14:47:13;99612.00;;;0.02;100.00
51530;BME280;37613;51.788;21.582;2023-11-19T14:51:16;99599.20;;;0.00;100.00
51530;BME280;37613;51.788;21.582;2023-11-19T14:55:19;99592.97;;;0.00;100.00
51530;BME280;37613;51.788;21.582;2023-11-19T14:59:21;99586.86;;;-0.01;100.00
51530;BME280;37613;51.788;21.582;2023-11-19T15:03:23;99589.87;;;-0.02;100.00
51530;BME280;37613;51.788;21.582;2023-11-19T15:07:26;99584.64;;;-0.03;100.00
51530;BME280;37613;51.788;21.582;2023-11-19T15:11:28;99578.36;;;-0.02;100.00
51530;BME280;37613;51.788;21.582;2023-11-19T15:15:30;99577.45;;;-0.02;100.00
51530;BME280;37613;51.788;21.582;2023-11-19T15:19:32;99575.05;;;-0.01;100.00
51530;BME280;37613;51.788;21.582;2023-11-19T15:23:34;99572.71;;;-0.01;100.00
51530;BME280;37613;51.788;21.582;2023-11-19T15:27:36;99571.55;;;-0.01;100.00
51530;BME280;37613;51.788;21.582;2023-11-19T15:31:39;99570.34;;;-0.00;100.00
51530;BME280;37613;51.788;21.582;2023-11-19T15:35:42;99569.02;;;0.00;100.00
51530;BME280;37613;51.788;21.582;2023-11-19T15:39:44;99567.65;;;0.00;100.00
51530;BME280;37613;51.788;21.582;2023-11-19T15:43:46;99561.23;;;0.02;100.00
51530;BME280;37613;51.788;21.582;2023-11-19T15:47:49;99558.30;;;0.03;100.00
51530;BME280;37613;51.788;21.582;2023-11-19T15:51:52;99559.87;;;0.03;100.00
51530;BME280;37613;51.788;21.582;2023-11-19T15:55:54;99558.94;;;0.05;100.00
51530;BME280;37613;51.788;21.582;2023-11-19T15:59:57;99553.29;;;0.06;100.00
51530;BME280;37613;51.788;21.582;2023-11-19T16:04:03;99545.28;;;0.06;100.00
51530;BME280;37613;51.788;21.582;2023-11-19T16:08:06;99543.41;;;0.06;100.00
51530;BME280;37613;51.788;21.582;2023-11-19T16:12:10;99539.19;;;0.05;100.00
51530;BME280;37613;51.788;21.582;2023-11-19T16:16:13;99541.19;;;0.04;100.00
51530;BME280;37613;51.788;21.582;2023-11-19T16:20:15;99549.10;;;0.04;100.00
51530;BME280;37613;51.788;21.582;2023-11-19T16:24:18;99553.52;;;0.04;100.00
51530;BME280;37613;51.788;21.582;2023-11-19T16:28:21;99559.36;;;0.04;100.00
51530;BME280;37613;51.788;21.582;2023-11-19T16:32:25;99557.46;;;0.06;100.00
51530;BME280;37613;51.788;21.582;2023-11-19T16:36:28;99553.02;;;0.05;100.00
51530;BME280;37613;51.788;21.582;2023-11-19T16:40:31;99551.89;;;0.04;100.00
51530;BME280;37613;51.788;21.582;2023-11-19T16:44:33;99546.16;;;0.02;100.00
51530;BME280;37613;51.788;21.582;2023-11-19T16:48:36;99537.83;;;0.07;100.00
51530;BME280;37613;51.788;21.582;2023-11-19T16:52:38;99529.61;;;0.04;100.00
51530;BME280;37613;51.788;21.582;2023-11-19T16:56:41;99521.38;;;0.02;100.00
51530;BME280;37613;51.788;21.582;2023-11-19T17:00:43;99520.59;;;-0.01;100.00
51530;BME280;37613;51.788;21.582;2023-11-19T17:04:45;99526.06;;;-0.00;100.00
51530;BME280;37613;51.788;21.582;2023-11-19T17:08:48;99521.00;;;-0.00;100.00
51530;BME280;37613;51.788;21.582;2023-11-19T17:12:51;99511.56;;;0.01;100.00
51530;BME280;37613;51.788;21.582;2023-11-19T17:16:54;99506.93;;;0.02;100.00
51530;BME280;37613;51.788;21.582;2023-11-19T17:21:01;99509.01;;;0.04;100.00
51530;BME280;37613;51.788;21.582;2023-11-19T17:25:04;99507.50;;;0.06;100.00
51530;BME280;37613;51.788;21.582;2023-11-19T17:29:08;99499.33;;;0.07;100.00
51530;BME280;37613;51.788;21.582;2023-11-19T17:33:10;99491.73;;;0.08;100.00
51530;BME280;37613;51.788;21.582;2023-11-19T17:37:16;99491.98;;;0.09;100.00
51530;BME280;37613;51.788;21.582;2023-11-19T17:41:24;99480.56;;;0.09;100.00
51530;BME280;37613;51.788;21.582;2023-11-19T17:45:27;99476.98;;;0.09;100.00
51530;BME280;37613;51.788;21.582;2023-11-19T17:49:32;99475.29;;;0.07;100.00
51530;BME280;37613;51.788;21.582;2023-11-19T17:53:34;99465.44;;;0.05;100.00
51530;BME280;37613;51.788;21.582;2023-11-19T17:57:40;99457.44;;;0.05;100.00
51530;BME280;37613;51.788;21.582;2023-11-19T18:01:43;99454.38;;;0.04;100.00
51530;BME280;37613;51.788;21.582;2023-11-19T18:05:45;99453.98;;;0.04;100.00
51530;BME280;37613;51.788;21.582;2023-11-19T18:09:50;99458.10;;;0.04;100.00
51530;BME280;37613;51.788;21.582;2023-11-19T18:13:53;99453.73;;;0.03;100.00
51530;BME280;37613;51.788;21.582;2023-11-19T18:17:58;99446.39;;;0.02;100.00
51530;BME280;37613;51.788;21.582;2023-11-19T18:22:03;99442.92;;;0.00;100.00
51530;BME280;37613;51.788;21.582;2023-11-19T18:26:07;99438.92;;;-0.01;100.00
51530;BME280;37613;51.788;21.582;2023-11-19T18:30:10;99433.94;;;-0.01;100.00
51530;BME280;37613;51.788;21.582;2023-11-19T18:34:16;99429.86;;;-0.02;100.00
51530;BME280;37613;51.788;21.582;2023-11-19T18:38:20;99428.44;;;-0.03;100.00
51530;BME280;37613;51.788;21.582;2023-11-19T18:42:23;99426.89;;;-0.03;100.00
51530;BME280;37613;51.788;21.582;2023-11-19T18:46:26;99420.16;;;-0.02;100.00
51530;BME280;37613;51.788;21.582;2023-11-19T18:50:30;99412.73;;;-0.03;100.00
51530;BME280;37613;51.788;21.582;2023-11-19T18:54:34;99408.21;;;-0.04;100.00
51530;BME280;37613;51.788;21.582;2023-11-19T18:58:38;99402.14;;;-0.05;100.00
51530;BME280;37613;51.788;21.582;2023-11-19T19:02:43;99392.45;;;-0.07;100.00
51530;BME280;37613;51.788;21.582;2023-11-19T19:06:50;99388.20;;;-0.08;100.00
51530;BME280;37613;51.788;21.582;2023-11-19T19:10:55;99388.95;;;-0.09;100.00
51530;BME280;37613;51.788;21.582;2023-11-19T19:14:59;99388.38;;;-0.10;100.00
51530;BME280;37613;51.788;21.582;2023-11-19T19:19:03;99382.27;;;-0.11;100.00
51530;BME280;37613;51.788;21.582;2023-11-19T19:23:06;99379.30;;;-0.13;100.00
51530;BME280;37613;51.788;21.582;2023-11-19T19:27:10;99372.89;;;-0.14;100.00
51530;BME280;37613;51.788;21.582;2023-11-19T19:31:13;99370.38;;;-0.15;100.00
51530;BME280;37613;51.788;21.582;2023-11-19T19:35:20;99366.52;;;-0.14;100.00
51530;BME280;37613;51.788;21.582;2023-11-19T19:39:25;99362.95;;;-0.14;100.00
51530;BME280;37613;51.788;21.582;2023-11-19T19:43:32;99354.77;;;-0.15;100.00
51530;BME280;37613;51.788;21.582;2023-11-19T19:47:36;99352.52;;;-0.14;100.00
51530;BME280;37613;51.788;21.582;2023-11-19T19:51:42;99350.96;;;-0.15;100.00
51530;BME280;37613;51.788;21.582;2023-11-19T19:55:47;99354.86;;;-0.14;100.00
51530;BME280;37613;51.788;21.582;2023-11-19T19:59:49;99354.84;;;-0.15;100.00
51530;BME280;37613;51.788;21.582;2023-11-19T20:03:55;99347.77;;;-0.15;100.00
51530;BME280;37613;51.788;21.582;2023-11-19T20:07:59;99347.38;;;-0.15;100.00
51530;BME280;37613;51.788;21.582;2023-11-19T20:12:02;99346.30;;;-0.15;100.00
51530;BME280;37613;51.788;21.582;2023-11-19T20:16:04;99346.95;;;-0.14;100.00
51530;BME280;37613;51.788;21.582;2023-11-19T20:20:10;99347.89;;;-0.13;100.00
51530;BME280;37613;51.788;21.582;2023-11-19T20:24:15;99346.34;;;-0.13;100.00
51530;BME280;37613;51.788;21.582;2023-11-19T20:28:17;99340.76;;;-0.13;100.00
51530;BME280;37613;51.788;21.582;2023-11-19T20:32:19;99335.36;;;-0.14;100.00
51530;BME280;37613;51.788;21.582;2023-11-19T20:36:22;99333.19;;;-0.16;100.00
51530;BME280;37613;51.788;21.582;2023-11-19T20:40:25;99327.64;;;-0.17;100.00
51530;BME280;37613;51.788;21.582;2023-11-19T20:44:28;99323.52;;;-0.18;100.00
51530;BME280;37613;51.788;21.582;2023-11-19T20:48:31;99319.83;;;-0.19;100.00
51530;BME280;37613;51.788;21.582;2023-11-19T20:52:35;99317.17;;;-0.20;100.00
51530;BME280;37613;51.788;21.582;2023-11-19T20:56:39;99313.96;;;-0.21;100.00
51530;BME280;37613;51.788;21.582;2023-11-19T21:00:44;99310.34;;;-0.22;100.00
51530;BME280;37613;51.788;21.582;2023-11-19T21:04:48;99310.40;;;-0.23;100.00
51530;BME280;37613;51.788;21.582;2023-11-19T21:08:50;99303.45;;;-0.24;100.00
51530;BME280;37613;51.788;21.582;2023-11-19T21:12:53;99296.77;;;-0.24;100.00
51530;BME280;37613;51.788;21.582;2023-11-19T21:16:56;99292.70;;;-0.22;100.00
51530;BME280;37613;51.788;21.582;2023-11-19T21:20:58;99289.63;;;-0.21;100.00
51530;BME280;37613;51.788;21.582;2023-11-19T21:25:00;99285.70;;;-0.20;100.00